TRA172 LDPL-LDSP
Flight info
| Callsign | TRA172 |
|---|---|
| Flight time | N/A |
| Altitude | 23000 |
| Route | LOS DCT MINTU DCT SAL |
| Aircraft | A321/M-SDE3FGHIRWY/LB1 |
Departure
| Time | 2026-04-24 14:50 |
|---|---|
| Airport | Pula Airport (LDPL) |
Arrival
| Time | N/A |
|---|---|
| Airport | Split Saint Jerome Airport (LDSP) |
| Time | Latitude | Longitude | Altitude | Speed | Heading |
|---|---|---|---|---|---|
| 2026-04-24 14:43 | 44.89748 | 13.92395 | 226 ft | 0 kts | 45° |
| 2026-04-24 14:46 | 44.89749 | 13.92396 | 226 ft | 2 kts | 45° |
| 2026-04-24 14:46 | 44.89743 | 13.92443 | 228 ft | 8 kts | 141° |
| 2026-04-24 14:46 | 44.89692 | 13.92457 | 226 ft | 7 kts | 175° |
| 2026-04-24 14:47 | 44.89646 | 13.92461 | 226 ft | 6 kts | 176° |
| 2026-04-24 14:47 | 44.89607 | 13.92466 | 226 ft | 5 kts | 162° |
| 2026-04-24 14:47 | 44.89587 | 13.92501 | 226 ft | 4 kts | 112° |
| 2026-04-24 14:47 | 44.89583 | 13.92548 | 226 ft | 8 kts | 92° |
| 2026-04-24 14:48 | 44.89585 | 13.92680 | 225 ft | 18 kts | 88° |
| 2026-04-24 14:48 | 44.89588 | 13.92853 | 227 ft | 17 kts | 89° |
| 2026-04-24 14:48 | 44.89592 | 13.93010 | 227 ft | 15 kts | 88° |
| 2026-04-24 14:48 | 44.89590 | 13.93146 | 228 ft | 13 kts | 99° |
| 2026-04-24 14:49 | 44.89554 | 13.93270 | 226 ft | 14 kts | 118° |
| 2026-04-24 14:49 | 44.89506 | 13.93396 | 225 ft | 14 kts | 119° |
| 2026-04-24 14:49 | 44.89447 | 13.93489 | 226 ft | 12 kts | 155° |
| 2026-04-24 14:49 | 44.89386 | 13.93461 | 228 ft | 9 kts | 248° |
| 2026-04-24 14:50 | 44.89380 | 13.93366 | 228 ft | 17 kts | 267° |
| 2026-04-24 14:50 | 44.89367 | 13.92728 | 221 ft | 111 kts | 269° |
| 2026-04-24 14:50 | 44.89340 | 13.91287 | 257 ft | 177 kts | 268° |
| 2026-04-24 14:50 | 44.89292 | 13.89459 | 899 ft | 192 kts | 268° |
| 2026-04-24 14:51 | 44.89241 | 13.87606 | 2039 ft | 188 kts | 268° |
| 2026-04-24 14:51 | 44.89189 | 13.85688 | 2847 ft | 207 kts | 268° |
| 2026-04-24 14:51 | 44.89132 | 13.83597 | 3823 ft | 217 kts | 268° |
| 2026-04-24 14:51 | 44.89075 | 13.81455 | 4956 ft | 221 kts | 268° |
| 2026-04-24 14:52 | 44.89018 | 13.79266 | 6054 ft | 225 kts | 268° |
| 2026-04-24 14:52 | 44.88721 | 13.77096 | 7048 ft | 231 kts | 240° |
| 2026-04-24 14:52 | 44.87564 | 13.75535 | 7895 ft | 241 kts | 203° |
| 2026-04-24 14:52 | 44.85905 | 13.75042 | 8393 ft | 248 kts | 182° |
| 2026-04-24 14:53 | 44.84166 | 13.75082 | 9039 ft | 251 kts | 176° |
| 2026-04-24 14:53 | 44.82437 | 13.75279 | 9722 ft | 254 kts | 175° |
| 2026-04-24 14:53 | 44.80669 | 13.75500 | 10402 ft | 256 kts | 175° |
| 2026-04-24 14:53 | 44.78914 | 13.75976 | 11054 ft | 260 kts | 159° |
| 2026-04-24 14:54 | 44.77345 | 13.77249 | 11677 ft | 264 kts | 140° |
| 2026-04-24 14:54 | 44.76097 | 13.79274 | 11904 ft | 287 kts | 119° |
| 2026-04-24 14:54 | 44.75193 | 13.81891 | 12062 ft | 309 kts | 115° |
| 2026-04-24 14:54 | 44.74242 | 13.84737 | 12201 ft | 332 kts | 115° |
| 2026-04-24 14:55 | 44.73573 | 13.86724 | 12285 ft | 347 kts | 115° |
| 2026-04-24 14:55 | 44.72149 | 13.90929 | 12823 ft | 362 kts | 115° |
| 2026-04-24 14:55 | 44.71055 | 13.94137 | 13441 ft | 366 kts | 116° |
| 2026-04-24 14:55 | 44.69947 | 13.97372 | 14078 ft | 369 kts | 116° |
| 2026-04-24 14:56 | 44.68829 | 14.00637 | 14715 ft | 373 kts | 116° |
| 2026-04-24 14:56 | 44.67697 | 14.03936 | 15330 ft | 376 kts | 116° |
| 2026-04-24 14:56 | 44.66556 | 14.07259 | 15920 ft | 379 kts | 116° |
| 2026-04-24 14:56 | 44.65404 | 14.10608 | 16499 ft | 382 kts | 116° |
| 2026-04-24 14:57 | 44.64243 | 14.13984 | 17060 ft | 386 kts | 116° |
| 2026-04-24 14:57 | 44.63071 | 14.17393 | 17607 ft | 389 kts | 116° |
| 2026-04-24 14:57 | 44.61889 | 14.20823 | 18136 ft | 392 kts | 116° |
| 2026-04-24 14:57 | 44.60695 | 14.24281 | 18650 ft | 395 kts | 116° |
| 2026-04-24 14:58 | 44.59492 | 14.27765 | 19151 ft | 398 kts | 116° |
| 2026-04-24 14:58 | 44.58280 | 14.31271 | 19640 ft | 401 kts | 116° |
| 2026-04-24 14:58 | 44.58209 | 14.31477 | 19670 ft | 401 kts | 116° |
| 2026-04-24 14:59 | 44.57848 | 14.32518 | 19815 ft | 402 kts | 116° |
| 2026-04-24 14:59 | 44.56620 | 14.36056 | 20307 ft | 405 kts | 116° |
| 2026-04-24 14:59 | 44.55379 | 14.39614 | 20767 ft | 408 kts | 116° |
| 2026-04-24 14:59 | 44.54125 | 14.43189 | 21237 ft | 410 kts | 117° |
| 2026-04-24 15:00 | 44.52623 | 14.46606 | 21677 ft | 413 kts | 127° |
| 2026-04-24 15:00 | 44.50719 | 14.49629 | 22104 ft | 416 kts | 137° |
| 2026-04-24 15:00 | 44.48516 | 14.52283 | 22531 ft | 419 kts | 140° |
| 2026-04-24 15:00 | 44.46285 | 14.54919 | 22901 ft | 421 kts | 140° |
| 2026-04-24 15:01 | 44.44052 | 14.57577 | 22995 ft | 422 kts | 140° |
| 2026-04-24 15:01 | 44.41817 | 14.60251 | 23010 ft | 423 kts | 140° |
| 2026-04-24 15:01 | 44.39582 | 14.62928 | 23009 ft | 423 kts | 140° |
| 2026-04-24 15:01 | 44.37341 | 14.65597 | 23009 ft | 423 kts | 140° |
| 2026-04-24 15:02 | 44.35097 | 14.68259 | 23009 ft | 423 kts | 140° |
| 2026-04-24 15:02 | 44.32852 | 14.70914 | 23010 ft | 423 kts | 140° |
| 2026-04-24 15:02 | 44.30608 | 14.73570 | 23009 ft | 423 kts | 140° |
| 2026-04-24 15:02 | 44.28394 | 14.76193 | 23009 ft | 423 kts | 140° |
| 2026-04-24 15:03 | 44.26876 | 14.77990 | 23010 ft | 423 kts | 140° |
| 2026-04-24 15:03 | 44.23899 | 14.81512 | 23008 ft | 423 kts | 140° |
| 2026-04-24 15:03 | 44.21654 | 14.84164 | 23006 ft | 423 kts | 140° |
| 2026-04-24 15:03 | 44.19412 | 14.86808 | 23004 ft | 423 kts | 140° |
| 2026-04-24 15:04 | 44.17167 | 14.89449 | 23003 ft | 422 kts | 140° |
| 2026-04-24 15:04 | 44.14921 | 14.92087 | 23001 ft | 422 kts | 140° |
| 2026-04-24 15:04 | 44.12673 | 14.94723 | 23000 ft | 422 kts | 140° |
| 2026-04-24 15:04 | 44.10430 | 14.97353 | 22996 ft | 421 kts | 140° |
| 2026-04-24 15:05 | 44.08217 | 14.99951 | 22752 ft | 410 kts | 140° |
| 2026-04-24 15:05 | 44.06055 | 15.02486 | 22310 ft | 404 kts | 140° |
| 2026-04-24 15:05 | 44.03918 | 15.04989 | 21839 ft | 399 kts | 140° |
| 2026-04-24 15:05 | 44.01812 | 15.07453 | 21392 ft | 393 kts | 140° |
| 2026-04-24 15:06 | 43.99733 | 15.09880 | 20957 ft | 388 kts | 140° |
| 2026-04-24 15:06 | 43.97651 | 15.12307 | 20518 ft | 383 kts | 140° |
| 2026-04-24 15:06 | 43.95650 | 15.14636 | 20087 ft | 378 kts | 140° |
| 2026-04-24 15:06 | 43.93645 | 15.16968 | 19656 ft | 374 kts | 140° |
| 2026-04-24 15:07 | 43.91673 | 15.19288 | 19220 ft | 370 kts | 140° |
| 2026-04-24 15:07 | 43.89732 | 15.21612 | 18789 ft | 367 kts | 139° |
| 2026-04-24 15:07 | 43.87794 | 15.23957 | 18340 ft | 364 kts | 139° |
| 2026-04-24 15:07 | 43.85923 | 15.26225 | 17910 ft | 361 kts | 139° |
| 2026-04-24 15:08 | 43.84010 | 15.28528 | 17471 ft | 358 kts | 139° |
| 2026-04-24 15:08 | 43.82132 | 15.30779 | 17032 ft | 356 kts | 139° |
| 2026-04-24 15:08 | 43.80291 | 15.32981 | 16596 ft | 354 kts | 139° |
| 2026-04-24 15:08 | 43.78432 | 15.35203 | 16157 ft | 352 kts | 139° |
| 2026-04-24 15:09 | 43.76587 | 15.37403 | 15723 ft | 349 kts | 139° |
| 2026-04-24 15:09 | 43.74751 | 15.39589 | 15289 ft | 347 kts | 139° |
| 2026-04-24 15:09 | 43.72927 | 15.41758 | 14849 ft | 345 kts | 139° |
| 2026-04-24 15:09 | 43.71703 | 15.43213 | 14568 ft | 343 kts | 139° |
| 2026-04-24 15:10 | 43.69315 | 15.46051 | 13999 ft | 341 kts | 139° |
| 2026-04-24 15:10 | 43.67523 | 15.48177 | 13561 ft | 339 kts | 140° |
| 2026-04-24 15:10 | 43.65740 | 15.50290 | 13127 ft | 337 kts | 140° |
| 2026-04-24 15:10 | 43.64541 | 15.51713 | 12835 ft | 336 kts | 139° |
| 2026-04-24 15:11 | 43.62774 | 15.53809 | 12396 ft | 334 kts | 139° |